Station: Maningrida Airport  

  Atmospheric Gas Attenuation - ITU Rec 676-11   ----------------- dB/100km -----------------
Date Time Temp RH % AH g/m3 Dew Point Wind Direction Speed kph Gust kph Barometer mB Rainfall Since 9am 24GHz 47GHz 76GHz 122GHz 134GHz 241GHz
07/05 11:50 30 52 15.77 19.1 19 24 1011.6 0 33.7 32.2 58.6 154.8 165.6 575.3
07/05 11:40 29.3 51 14.89 18.4 26 30 1011.9 0 31.9 31.0 55.6 146.8 155.5 540.1
07/05 11:30 29.3 52 15.18 18.7 22 37 1012.1 0 32.5 31.5 56.7 149.9 159.3 553.4
07/05 11:20 28.7 54 15.26 18.5 20 26 1012.1 0 32.7 31.8 57.5 151.9 161.6 561.3
07/05 11:10 29 54 15.51 19 15 20 1012.3 0 33.2 32.1 58.3 154.0 164.4 570.8
07/05 11:00 29.1 54 15.6 19.1 17 26 1012.6 0 33.4 32.3 58.6 154.8 165.4 574.4
07/05 10:50 27.9 55 14.88 18 24 28 1012.6 0 32.0 31.5 56.6 149.4 158.3 549.6
07/05 10:40 28.1 56 15.31 18.5 17 24 1012.7 0 32.9 32.2 58.2 153.7 163.6 568.2
07/05 10:30 27.5 57 15.08 18.2 17 28 1012.9 0 32.5 32.0 57.7 152.3 161.8 561.9
07/05 10:20 27 57 14.67 17.8 19 30 1012.8 0 31.6 31.5 56.4 148.8 157.4 546.3
07/05 10:10 26.9 59 15.1 18.2 19 26 1012.9 0 32.5 32.3 58.2 153.7 163.4 567.2
07/05 10:00 26.7 60 15.19 18.3 17 24 1012.9 0 32.7 32.5 58.7 155.1 165.0 572.9
07/05 09:50 26.4 60 14.94 18 13 13 1012.8 0 32.2 32.2 57.9 152.9 162.3 563.2
07/05 09:40 25.7 62 14.84 17.9 19 26 1012.9 0 32.1 32.3 58.0 153.2 162.4 563.6
07/05 09:30 26.1 64 15.67 18.8 15 28 1013.1 0 33.8 33.5 61.2 161.8 173.0 600.6
07/05 09:20 26 66 16.07 19.2 17 20 1012.9 0 34.7 34.3 63.0 166.5 178.8 620.8
07/05 09:10 25.5 67 15.86 18.9 19 22 1012.9 0 34.3 34.1 62.5 165.2 177.0 614.5
07/05 09:00 24.9 67 15.34 18.4 19 28 1012.9 0 33.2 33.4 60.8 160.5 171.0 593.7
07/05 08:50 25.1 69 15.97 19 19 22 1012.7 0 34.5 34.4 63.3 167.3 179.5 623.0
07/05 08:40 24.7 70 15.84 18.9 20 26 1012.6 0 34.3 34.4 63.1 166.6 178.5 619.8
07/05 08:30 24.7 71 16.07 19.1 15 24 1012.7 0 34.8 34.8 64.1 169.3 181.8 631.3
07/05 08:20 24.5 72 16.11 19.1 15 20 1012.5 0 34.9 34.9 64.4 170.2 182.9 634.8
07/05 08:10 24.3 75 16.6 19.6 15 19 1012.5 0 35.9 35.9 66.7 176.4 190.5 661.3
07/05 08:00 24.1 75 16.41 19.4 13 24 1012.6 0 35.5 35.6 66.1 174.6 188.2 653.4
07/05 07:50 23.6 81 17.23 20.1 9 15 1012.4 0 37.3 37.3 70.2 185.7 201.6 700.1
07/05 07:40 23 82 16.85 19.8 15 20 1012.4 0 36.6 36.9 69.0 182.5 197.5 685.7
07/05 07:30 22.5 84 16.78 19.7 11 15 1012.5 0 36.5 37.0 69.2 182.8 197.8 686.5
07/05 07:20 22.1 85 16.59 19.5 11 13 1012.4 0 36.1 36.8 68.6 181.4 196.0 680.1
07/05 07:10 21.7 88 16.79 19.6 7 9 1012.2 0 36.6 37.3 69.9 184.8 200.0 694.2
07/05 07:00 21.3 88 16.4 19.2 9 15 1012.2 0 35.8 36.8 68.5 181.0 195.2 677.2
07/05 06:50 21 89 16.3 19.1 9 11 1012 0 35.6 36.7 68.3 180.4 194.4 674.4
07/05 06:40 21 89 16.3 19.1 7 9 1011.9 0 35.6 36.7 68.3 180.4 194.4 674.4
07/05 06:30 20.8 91 16.48 19.3 9 11 1011.9 0 36.0 37.1 69.3 183.1 197.7 685.8
07/05 06:20 20.9 90 16.39 19.2 9 9 1011.7 0 35.8 36.9 68.8 181.7 196.0 680.0
07/05 06:10 21.1 89 16.4 19.2 9 11 1011.6 0 35.8 36.9 68.6 181.4 195.6 678.7
07/05 06:00 21.1 89 16.4 19.2 9 13 1011.6 0 35.8 36.9 68.6 181.4 195.6 678.7
07/05 05:50 21.1 90 16.58 19.4 9 11 1011.3 0 36.2 37.2 69.4 183.6 198.3 688.1
07/05 05:40 20.8 91 16.48 19.3 9 11 1011.3 0 36.0 37.1 69.2 183.0 197.6 685.5
07/05 05:30 20.8 90 16.29 19.1 7 11 1011.4 0 35.6 36.8 68.4 180.7 194.7 675.4
07/05 05:20 20.6 91 16.29 19.1 7 9 1011.1 0 35.6 36.8 68.5 181.1 195.2 677.0
07/05 05:10 20.7 91 16.38 19.2 6 7 1011.1 0 35.8 37.0 68.9 182.0 196.3 680.9
07/05 05:00 20.8 91 16.48 19.3 6 9 1011.1 0 36.0 37.1 69.2 183.0 197.5 685.4
07/05 04:50 20.8 91 16.48 19.3 7 9 1011 0 36.0 37.1 69.2 183.0 197.5 685.3
07/05 04:40 20.7 91 16.38 19.2 7 7 1011 0 35.8 37.0 68.9 182.0 196.3 680.9
07/05 04:30 20.7 91 16.38 19.2 6 9 1011.1 0 35.8 37.0 68.9 182.0 196.3 680.9
07/05 04:20 20.8 91 16.48 19.3 6 7 1011.1 0 36.0 37.1 69.2 183.0 197.5 685.4
07/05 04:10 20.9 90 16.39 19.2 7 7 1011.1 0 35.8 36.9 68.7 181.6 195.9 679.7
07/05 04:00 20.8 90 16.29 19.1 4 7 1011.2 0 35.6 36.8 68.4 180.6 194.6 675.3
07/05 03:50 21.1 88 16.21 19 0 0 1011.2 0 35.4 36.5 67.7 178.9 192.6 668.4
07/05 03:40 21.7 85 16.21 19.1 0 0 1011.2 0 35.3 36.2 67.2 177.5 191.1 663.1
07/05 03:30 22.3 84 16.59 19.5 4 7 1011.3 0 36.1 36.7 68.4 180.8 195.3 677.8
07/05 03:20 22.6 81 16.27 19.2 6 6 1011.2 0 35.4 35.9 66.7 176.2 189.7 658.4
07/05 03:10 22.8 80 16.25 19.2 9 9 1011.2 0 35.3 35.8 66.4 175.5 188.9 655.7
07/05 03:00 22.7 80 16.16 19.1 9 11 1011.2 0 35.1 35.7 66.1 174.6 187.8 651.9
07/05 02:50 22.6 80 16.07 19 9 11 1011.2 0 35.0 35.6 65.8 173.8 186.8 648.1
07/05 02:40 22.9 79 16.14 19.1 11 11 1011.2 0 35.1 35.6 65.8 173.9 187.1 649.2
07/05 02:30 23.1 78 16.12 19.1 11 17 1011.3 0 35.0 35.5 65.6 173.3 186.3 646.5
07/05 02:20 23.3 77 16.1 19 13 15 1011.2 0 35.0 35.3 65.3 172.5 185.5 643.7
07/05 02:10 23.4 76 15.98 18.9 13 17 1011.2 0 34.7 35.1 64.7 170.9 183.5 636.8
07/05 02:00 23.6 75 15.95 18.9 15 19 1011.4 0 34.6 35.0 64.4 170.1 182.6 633.7
07/05 01:50 23.7 75 16.04 19 13 17 1011.2 0 34.8 35.1 64.7 170.9 183.6 637.3
07/05 01:40 23.7 75 16.04 19 15 19 1011.3 0 34.8 35.1 64.7 171.0 183.6 637.4
07/05 01:30 23.9 75 16.22 19.2 15 20 1011.5 0 35.2 35.3 65.3 172.7 185.8 644.9
07/05 01:20 24 74 16.1 19.1 15 17 1011.5 0 34.9 35.1 64.7 171.0 183.8 638.0
07/05 01:10 24.1 74 16.19 19.2 20 24 1011.5 0 35.1 35.2 65.0 171.9 184.9 641.7
07/05 01:00 24.1 73 15.97 19 15 19 1011.8 0 34.6 34.8 64.1 169.3 181.7 630.8
07/05 00:50 24.3 72 15.93 18.9 15 15 1011.7 0 34.5 34.7 63.7 168.4 180.7 627.1
07/05 00:40 24.5 71 15.89 18.9 17 20 1011.7 0 34.4 34.5 63.4 167.5 179.6 623.5
07/05 00:30 24.5 71 15.89 18.9 15 22 1011.9 0 34.4 34.5 63.4 167.5 179.6 623.5
07/05 00:20 24.8 70 15.93 19 22 26 1011.9 0 34.5 34.5 63.3 167.3 179.5 623.1
07/05 00:10 24.7 70 15.84 18.9 17 20 1012 0 34.3 34.3 63.0 166.5 178.5 619.5
07/05 00:00 25 69 15.88 18.9 15 24 1012.1 0 34.3 34.3 63.0 166.3 178.3 619.1
06/05 23:50 25.1 68 15.74 18.8 17 22 1011.9 0 34.0 34.0 62.3 164.5 176.1 611.3
06/05 23:40 25.2 69 16.06 19.1 13 17 1012 0 34.7 34.5 63.6 168.0 180.4 626.4
06/05 23:30 25.3 68 15.92 19 13 20 1012.3 0 34.4 34.3 62.9 166.2 178.2 618.8
06/05 23:20 25.6 67 15.95 19 15 20 1012.2 0 34.4 34.2 62.8 165.9 177.9 617.8
06/05 23:10 25.7 67 16.04 19.1 17 19 1012.2 0 34.6 34.3 63.1 166.7 179.0 621.4
06/05 23:00 25.7 67 16.04 19.3 15 20 1012.3 0 34.6 34.3 63.1 166.7 179.0 621.5
06/05 22:50 26 67 16.31 19.4 15 20 1012.2 0 35.2 34.7 64.0 169.2 182.1 632.3
06/05 22:40 26.2 65 16 19.3 19 20 1012.3 0 34.5 34.0 62.5 165.2 177.3 615.5
06/05 22:30 26.4 66 16.43 19.5 19 32 1012.6 0 35.4 34.7 64.2 169.7 182.9 635.1
06/05 22:20 26.3 67 16.59 19.7 19 20 1012.6 0 35.7 35.0 65.0 171.8 185.4 643.8
06/05 22:10 26.6 66 16.61 19.7 13 17 1012.6 0 35.7 35.0 64.8 171.4 184.9 642.3
06/05 22:00 26.6 67 16.87 20 15 24 1012.6 0 36.3 35.4 66.0 174.4 188.6 655.2
06/05 21:50 26.7 66 16.71 19.8 17 19 1012.6 0 35.9 35.1 65.2 172.3 186.1 646.4
06/05 21:40 27 65 16.73 19.9 20 26 1012.6 0 36.0 35.0 65.0 171.9 185.7 644.9
06/05 21:30 27 66 16.99 20.1 13 20 1012.6 0 36.5 35.5 66.1 174.9 189.4 657.8
06/05 21:20 27 66 16.99 20.1 11 15 1012.5 0 36.5 35.4 66.1 174.8 189.4 657.7
06/05 21:10 27.2 64 16.66 20 11 15 1012.5 0 35.8 34.8 64.5 170.6 184.2 639.8
06/05 21:00 27.5 63 16.67 19.8 15 24 1012.5 0 35.8 34.7 64.3 170.0 183.6 637.8
06/05 20:50 27.5 64 16.93 20.1 11 15 1012.4 0 36.3 35.1 65.4 173.0 187.3 650.5
06/05 20:40 27.5 64 16.93 20.1 9 13 1012.2 0 36.3 35.1 65.4 173.0 187.2 650.4
06/05 20:30 27.4 64 16.84 20 11 20 1012.2 0 36.2 35.0 65.1 172.2 186.2 646.8
06/05 20:20 27.2 64 16.66 20 9 13 1011.9 0 35.8 34.8 64.5 170.5 184.1 639.5
06/05 20:10 27 66 16.99 20.1 9 11 1011.8 0 36.5 35.4 66.1 174.7 189.3 657.4
06/05 20:00 27.1 66 17.08 20.4 7 11 1011.7 0 36.7 35.5 66.4 175.5 190.3 661.0
06/05 19:50 27.4 65 17.1 20.2 9 11 1011.4 0 36.7 35.4 66.2 175.1 189.8 659.2
06/05 19:40 27.6 65 17.29 20.4 11 13 1011.1 0 37.1 35.7 66.8 176.8 191.9 666.8
06/05 19:30 27.5 66 17.46 20.6 11 15 1011 0 37.5 36.0 67.7 178.9 194.6 676.0
06/05 19:20 27.3 66 17.27 20.4 9 11 1010.7 0 37.1 35.7 67.0 177.2 192.3 668.2

Last Refresh: 07-May-2026 12:01:18

Bureau of Meteorology